Hmcs Ottawa — CGAL — position and weather

sailwx.info

Track history (hours):
 
Tides and Currents Weather Stations Pressure Air Temp Water Temp Dewpoint Dewpoint Depression Visibility Wind Speed Wind Dir Waves Ship Positions

Hmcs Ottawa

Last reported at 2018-Jun-14 15:13 UTC. Time now 2018-Jun-25 03:38 UTC.
Position N 32°41' W 117°08'.
Warning: this ship's position is 10 days out of date.

Length 134 m; draft 7.4 m.

Type: Military. MMSI: 316950000.

Date/timePositionNaut miles runAvg speedWind from/ knotsBaromVisibWave heightAir tempDewpointWater temp
2018-Jun-14 15:13N 32°41' W 117°08'2 5.8
2018-Jun-14 14:55N 32°42' W 117°10'13 8.5
2018-Jun-14 13:20N 32°36' W 117°24'413.4
2018-Jun-14 13:00N 32°36' W 117°30'713.1
2018-Jun-14 12:28N 32°37' W 117°38'613.0
2018-Jun-14 12:00N 32°36' W 117°45'612.8
2018-Jun-14 11:31N 32°36' W 117°52'713.4
2018-Jun-14 11:00N 32°36' W 118°01'713.0
2018-Jun-14 10:29N 32°36' W 118°08'713.3
2018-Jun-14 09:59N 32°36' W 118°16'712.8
2018-Jun-14 09:27N 32°36' W 118°24'713.2
2018-Jun-14 08:56N 32°36' W 118°33'613.2
2018-Jun-14 08:29N 32°36' W 118°40'713.3
2018-Jun-14 07:59N 32°36' W 118°47'713.3
2018-Jun-14 07:30N 32°36' W 118°55'11 6.3
2018-Jun-14 05:50N 32°35' W 118°43'813.5
2018-Jun-14 05:13N 32°36' W 118°33'513.6
2018-Jun-14 04:50N 32°36' W 118°27'513.6
2018-Jun-14 04:30N 32°37' W 118°22'5 9.8
2018-Jun-14 04:00N 32°37' W 118°16'4 7.7
2018-Jun-14 03:27N 32°36' W 118°11'4 7.1
2018-Jun-14 02:52N 32°38' W 118°07'3 9.4
2018-Jun-14 02:30N 32°38' W 118°02'3 6.4
2018-Jun-14 02:00N 32°36' W 117°60'612.4
2018-Jun-14 01:29N 32°36' W 117°52'712.3
2018-Jun-14 00:55N 32°36' W 117°44'512.7
2018-Jun-14 00:30N 32°36' W 117°38'612.9
2018-Jun-14 00:00N 32°36' W 117°30'12 8.9
2018-Jun-13 22:41N 32°36' W 117°16'0 1.3
2018-Jun-13 22:18N 32°37' W 117°16'2 4.2
2018-Jun-13 21:55N 32°37' W 117°15'613.2
2018-Jun-13 21:29N 32°38' W 117°21'510.5
2018-Jun-13 21:00N 32°39' W 117°27'815.6
2018-Jun-13 20:30N 32°43' W 117°35'814.8
2018-Jun-13 19:59N 32°45' W 117°44'814.6
2018-Jun-13 19:25N 32°48' W 117°53'4 8.9
2018-Jun-13 19:00N 32°50' W 117°57'2 4.1
2018-Jun-13 18:28N 32°50' W 117°59'2 3.8
2018-Jun-13 18:00N 32°50' W 118°01'2 2.5
2018-Jun-13 17:20N 32°52' W 118°01'2 4.0
2018-Jun-13 16:50N 32°50' W 118°03'4 1.5
2018-Jun-13 14:24N 32°47' W 118°03'2 5.8
2018-Jun-13 14:00N 32°44' W 118°02'3 5.5
2018-Jun-13 13:28N 32°44' W 117°59'6 9.2
2018-Jun-13 12:50N 32°43' W 117°52'3 5.8
2018-Jun-13 12:15N 32°46' W 117°52'1 5.6
2018-Jun-13 12:00N 32°48' W 117°53'8 4.7
2018-Jun-13 10:25N 32°53' W 117°47'3 6.5
2018-Jun-13 09:58N 32°55' W 117°49'3 6.9
2018-Jun-13 09:30N 32°57' W 117°53'611.6
2018-Jun-13 09:00N 32°57' W 117°60'4 7.9
2018-Jun-13 08:30N 32°59' W 118°04'3 6.1
2018-Jun-13 07:57N 32°56' W 118°05'4 5.1
2018-Jun-13 07:10N 32°52' W 118°04'1 4.8
2018-Jun-13 06:58N 32°51' W 118°04'1 2.9
2018-Jun-13 06:30N 32°50' W 118°04'4 6.4
2018-Jun-13 05:54N 32°46' W 118°04'3 7.7
2018-Jun-13 05:30N 32°43' W 118°04'2 3.2
2018-Jun-13 04:56N 32°41' W 118°04'613.6
2018-Jun-13 04:30N 32°40' W 118°10'10 4.3
2018-Jun-13 02:09N 32°38' W 118°22'413.9
2018-Jun-13 01:54N 32°38' W 118°18'921.3
2018-Jun-13 01:28N 32°40' W 118°07'1018.3
2018-Jun-13 00:56N 32°50' W 118°04'2 5.1
2018-Jun-13 00:30N 32°52' W 118°03'1 1.2
2018-Jun-12 23:58N 32°52' W 118°04'0 0.4
2018-Jun-12 23:30N 32°52' W 118°04'1 1.2
2018-Jun-12 22:48N 32°53' W 118°03'2 6.5
2018-Jun-12 22:30N 32°51' W 118°05'0 0.8
2018-Jun-12 21:54N 32°51' W 118°06'1 2.7
2018-Jun-12 21:30N 32°50' W 118°06'815.8
2018-Jun-12 21:00N 32°58' W 118°06'1410.7
2018-Jun-12 19:42N 33°11' W 118°10'1 4.9
2018-Jun-12 19:28N 33°11' W 118°11'1 2.6
2018-Jun-12 19:00N 33°13' W 118°11'11 4.3
2018-Jun-12 16:31N 33°03' W 118°07'0 5.0
2018-Jun-12 16:30N 33°03' W 118°07'3 5.5
2018-Jun-12 15:53N 32°59' W 118°06'16 6.2
2018-Jun-12 13:21N 32°46' W 117°55'3 7.7
2018-Jun-12 12:58N 32°43' W 117°55'15 8.3
2018-Jun-12 11:13N 32°29' W 117°55'2 8.7
2018-Jun-12 11:00N 32°27' W 117°56'1 2.9
2018-Jun-12 10:30N 32°27' W 117°58'5 7.0
2018-Jun-12 09:44N 32°23' W 118°03'3 7.7
2018-Jun-12 09:17N 32°21' W 117°60'713.3
2018-Jun-12 08:44N 32°22' W 117°51'12 9.5
2018-Jun-12 07:30N 32°33' W 117°46'3 6.4
2018-Jun-12 06:58N 32°33' W 117°50'612.5
2018-Jun-12 06:30N 32°34' W 117°57'5 9.1
2018-Jun-12 06:00N 32°30' W 118°00'4 8.8
2018-Jun-12 05:30N 32°26' W 118°02'10 4.9
2018-Jun-12 03:23N 32°18' W 117°54'1210.1
2018-Jun-12 02:12N 32°29' W 117°51'410.1
2018-Jun-12 01:50N 32°33' W 117°51'410.8
2018-Jun-12 01:30N 32°36' W 117°54'4 1.1
2018-Jun-11 21:36N 32°40' W 117°55'215.2
2018-Jun-11 21:29N 32°39' W 117°57'919.0
2018-Jun-11 20:59N 32°40' W 117°46'4 5.2
2018-Jun-11 20:17N 32°39' W 117°41'2 4.0
2018-Jun-11 19:54N 32°41' W 117°40'3 7.3
2018-Jun-11 19:28N 32°42' W 117°44'6 9.3
2018-Jun-11 18:51N 32°44' W 117°50'5 3.3
2018-Jun-11 17:28N 32°44' W 117°56'3 6.4
2018-Jun-11 17:00N 32°44' W 117°59'4 5.9
2018-Jun-11 16:15N 32°46' W 118°04'3 7.8
2018-Jun-11 15:55N 32°47' W 118°07'4 9.0
2018-Jun-11 15:30N 32°50' W 118°09'4 2.4
2018-Jun-11 13:50N 32°52' W 118°05'8 3.0
2018-Jun-11 11:21N 32°57' W 117°58'2 6.0
2018-Jun-11 10:59N 32°59' W 117°58'3 5.9
2018-Jun-11 10:27N 33°03' W 117°58'10 4.5
2018-Jun-11 08:16N 33°06' W 118°09'2 7.5
2018-Jun-11 08:00N 33°05' W 118°10'510.0
2018-Jun-11 07:30N 32°60' W 118°10'3 6.7
2018-Jun-11 07:00N 32°56' W 118°09'8 8.5
2018-Jun-11 06:05N 32°54' W 118°00'1 6.7
2018-Jun-11 05:58N 32°53' W 117°60'3 6.4
2018-Jun-11 05:29N 32°50' W 118°00'3 6.0
2018-Jun-11 05:00N 32°47' W 118°00'3 5.9
2018-Jun-11 04:30N 32°44' W 117°60'3 6.0
2018-Jun-11 04:00N 32°41' W 117°60'3 6.7
2018-Jun-11 03:30N 32°39' W 118°02'4 7.5
2018-Jun-11 02:59N 32°37' W 117°58'612.5
2018-Jun-11 02:30N 32°37' W 117°51'1113.2
2018-Jun-11 01:40N 32°38' W 117°38'314.3
2018-Jun-11 01:28N 32°39' W 117°41'714.9
2018-Jun-11 01:00N 32°38' W 117°49'714.9
2018-Jun-11 00:30N 32°37' W 117°58'814.9
2018-Jun-11 00:00N 32°36' W 118°07'610.9
2018-Jun-10 23:29N 32°31' W 118°11'713.6
2018-Jun-10 23:00N 32°25' W 118°11'6 2.8
2018-Jun-10 20:56N 32°19' W 118°08'19 1.2
2018-Jun-10 04:30N 32°33' W 117°52'713.8
2018-Jun-10 04:00N 32°37' W 117°59'1314.4
2018-Jun-10 03:05N 32°37' W 118°15'314.5
2018-Jun-10 02:52N 32°37' W 118°19'3 5.8
2018-Jun-10 02:18N 32°37' W 118°15'413.3
2018-Jun-10 01:59N 32°37' W 118°10'713.5
2018-Jun-10 01:30N 32°37' W 118°02'714.1
2018-Jun-10 01:00N 32°37' W 117°54'2 3.6
2018-Jun-10 00:30N 32°38' W 117°52'2 3.6
2018-Jun-10 00:00N 32°38' W 117°55'510.6
2018-Jun-09 23:30N 32°33' W 117°55'814.5
2018-Jun-09 22:56N 32°25' W 117°57'1 1.7
2018-Jun-09 22:30N 32°25' W 117°56'2 4.0
2018-Jun-09 22:00N 32°23' W 117°56'16 3.1
2018-Jun-09 16:49N 32°21' W 118°14'0 0.2
2018-Jun-09 15:01N 32°20' W 118°14'2 4.5
2018-Jun-09 14:30N 32°23' W 118°15'2 4.4
2018-Jun-09 14:00N 32°25' W 118°15'4 4.2
2018-Jun-09 13:05N 32°26' W 118°11'2 4.5
2018-Jun-09 12:40N 32°27' W 118°09'5 4.6
2018-Jun-09 11:38N 32°28' W 118°03'1 7.6
2018-Jun-09 11:30N 32°28' W 118°02'5 9.4
2018-Jun-09 11:00N 32°24' W 117°58'6 3.4
2018-Jun-09 09:06N 32°19' W 117°54'0 4.8
2018-Jun-09 09:00N 32°19' W 117°54'40 1.4
2018-Jun-08 04:35N 32°38' W 117°13'1 3.9
2018-Jun-08 04:17N 32°37' W 117°13'1 0.8
2018-Jun-08 03:30N 32°38' W 117°13'5 9.6
2018-Jun-08 02:59N 32°38' W 117°18'1123.4
2018-Jun-08 02:30N 32°40' W 117°31'1 2.4
2018-Jun-08 02:00N 32°39' W 117°31'2 3.8
2018-Jun-08 01:30N 32°37' W 117°31'97 7.0
2018-Jun-07 11:30N 32°34' W 119°27'38311.5
2018-Jun-06 02:11N 37°11' W 124°49'317.8
2018-Jun-06 01:59N 37°15' W 124°48'917.5
2018-Jun-06 01:30N 37°23' W 124°46'1717.3
2018-Jun-06 00:29N 37°40' W 124°43'  
Track history (hours):
 
Tides and Currents Weather Stations Pressure Air Temp Water Temp Dewpoint Dewpoint Depression Visibility Wind Speed Wind Dir Waves Ship Positions

Hmcs Ottawa

Last reported at 2018-Jun-14 15:13 UTC. Time now 2018-Jun-25 03:38 UTC.
Position N 32°41' W 117°08'.
Warning: this ship's position is 10 days out of date.

Length 134 m; draft 7.4 m.

Type: Military. MMSI: 316950000.

Date/timePositionNaut miles runAvg speedWind from/ knotsBaromVisibWave heightAir tempDewpointWater temp
2018-Jun-14 15:13N 32°41' W 117°08'2 5.8
2018-Jun-14 14:55N 32°42' W 117°10'13 8.5
2018-Jun-14 13:20N 32°36' W 117°24'413.4
2018-Jun-14 13:00N 32°36' W 117°30'713.1
2018-Jun-14 12:28N 32°37' W 117°38'613.0
2018-Jun-14 12:00N 32°36' W 117°45'612.8
2018-Jun-14 11:31N 32°36' W 117°52'713.4
2018-Jun-14 11:00N 32°36' W 118°01'713.0
2018-Jun-14 10:29N 32°36' W 118°08'713.3
2018-Jun-14 09:59N 32°36' W 118°16'712.8
2018-Jun-14 09:27N 32°36' W 118°24'713.2
2018-Jun-14 08:56N 32°36' W 118°33'613.2
2018-Jun-14 08:29N 32°36' W 118°40'713.3
2018-Jun-14 07:59N 32°36' W 118°47'713.3
2018-Jun-14 07:30N 32°36' W 118°55'11 6.3
2018-Jun-14 05:50N 32°35' W 118°43'813.5
2018-Jun-14 05:13N 32°36' W 118°33'513.6
2018-Jun-14 04:50N 32°36' W 118°27'513.6
2018-Jun-14 04:30N 32°37' W 118°22'5 9.8
2018-Jun-14 04:00N 32°37' W 118°16'4 7.7
2018-Jun-14 03:27N 32°36' W 118°11'4 7.1
2018-Jun-14 02:52N 32°38' W 118°07'3 9.4
2018-Jun-14 02:30N 32°38' W 118°02'3 6.4
2018-Jun-14 02:00N 32°36' W 117°60'612.4
2018-Jun-14 01:29N 32°36' W 117°52'712.3
2018-Jun-14 00:55N 32°36' W 117°44'512.7
2018-Jun-14 00:30N 32°36' W 117°38'612.9
2018-Jun-14 00:00N 32°36' W 117°30'12 8.9
2018-Jun-13 22:41N 32°36' W 117°16'0 1.3
2018-Jun-13 22:18N 32°37' W 117°16'2 4.2
2018-Jun-13 21:55N 32°37' W 117°15'613.2
2018-Jun-13 21:29N 32°38' W 117°21'510.5
2018-Jun-13 21:00N 32°39' W 117°27'815.6
2018-Jun-13 20:30N 32°43' W 117°35'814.8
2018-Jun-13 19:59N 32°45' W 117°44'814.6
2018-Jun-13 19:25N 32°48' W 117°53'4 8.9
2018-Jun-13 19:00N 32°50' W 117°57'2 4.1
2018-Jun-13 18:28N 32°50' W 117°59'2 3.8
2018-Jun-13 18:00N 32°50' W 118°01'2 2.5
2018-Jun-13 17:20N 32°52' W 118°01'2 4.0
2018-Jun-13 16:50N 32°50' W 118°03'4 1.5
2018-Jun-13 14:24N 32°47' W 118°03'2 5.8
2018-Jun-13 14:00N 32°44' W 118°02'3 5.5
2018-Jun-13 13:28N 32°44' W 117°59'6 9.2
2018-Jun-13 12:50N 32°43' W 117°52'3 5.8
2018-Jun-13 12:15N 32°46' W 117°52'1 5.6
2018-Jun-13 12:00N 32°48' W 117°53'8 4.7
2018-Jun-13 10:25N 32°53' W 117°47'3 6.5
2018-Jun-13 09:58N 32°55' W 117°49'3 6.9
2018-Jun-13 09:30N 32°57' W 117°53'611.6
2018-Jun-13 09:00N 32°57' W 117°60'4 7.9
2018-Jun-13 08:30N 32°59' W 118°04'3 6.1
2018-Jun-13 07:57N 32°56' W 118°05'4 5.1
2018-Jun-13 07:10N 32°52' W 118°04'1 4.8
2018-Jun-13 06:58N 32°51' W 118°04'1 2.9
2018-Jun-13 06:30N 32°50' W 118°04'4 6.4
2018-Jun-13 05:54N 32°46' W 118°04'3 7.7
2018-Jun-13 05:30N 32°43' W 118°04'2 3.2
2018-Jun-13 04:56N 32°41' W 118°04'613.6
2018-Jun-13 04:30N 32°40' W 118°10'10 4.3
2018-Jun-13 02:09N 32°38' W 118°22'413.9
2018-Jun-13 01:54N 32°38' W 118°18'921.3
2018-Jun-13 01:28N 32°40' W 118°07'1018.3
2018-Jun-13 00:56N 32°50' W 118°04'2 5.1
2018-Jun-13 00:30N 32°52' W 118°03'1 1.2
2018-Jun-12 23:58N 32°52' W 118°04'0 0.4
2018-Jun-12 23:30N 32°52' W 118°04'1 1.2
2018-Jun-12 22:48N 32°53' W 118°03'2 6.5
2018-Jun-12 22:30N 32°51' W 118°05'0 0.8
2018-Jun-12 21:54N 32°51' W 118°06'1 2.7
2018-Jun-12 21:30N 32°50' W 118°06'815.8
2018-Jun-12 21:00N 32°58' W 118°06'1410.7
2018-Jun-12 19:42N 33°11' W 118°10'1 4.9
2018-Jun-12 19:28N 33°11' W 118°11'1 2.6
2018-Jun-12 19:00N 33°13' W 118°11'11 4.3
2018-Jun-12 16:31N 33°03' W 118°07'0 5.0
2018-Jun-12 16:30N 33°03' W 118°07'3 5.5
2018-Jun-12 15:53N 32°59' W 118°06'16 6.2
2018-Jun-12 13:21N 32°46' W 117°55'3 7.7
2018-Jun-12 12:58N 32°43' W 117°55'15 8.3
2018-Jun-12 11:13N 32°29' W 117°55'2 8.7
2018-Jun-12 11:00N 32°27' W 117°56'1 2.9
2018-Jun-12 10:30N 32°27' W 117°58'5 7.0
2018-Jun-12 09:44N 32°23' W 118°03'3 7.7
2018-Jun-12 09:17N 32°21' W 117°60'713.3
2018-Jun-12 08:44N 32°22' W 117°51'12 9.5
2018-Jun-12 07:30N 32°33' W 117°46'3 6.4
2018-Jun-12 06:58N 32°33' W 117°50'612.5
2018-Jun-12 06:30N 32°34' W 117°57'5 9.1
2018-Jun-12 06:00N 32°30' W 118°00'4 8.8
2018-Jun-12 05:30N 32°26' W 118°02'10 4.9
2018-Jun-12 03:23N 32°18' W 117°54'1210.1
2018-Jun-12 02:12N 32°29' W 117°51'410.1
2018-Jun-12 01:50N 32°33' W 117°51'410.8
2018-Jun-12 01:30N 32°36' W 117°54'4 1.1
2018-Jun-11 21:36N 32°40' W 117°55'215.2
2018-Jun-11 21:29N 32°39' W 117°57'919.0
2018-Jun-11 20:59N 32°40' W 117°46'4 5.2
2018-Jun-11 20:17N 32°39' W 117°41'2 4.0
2018-Jun-11 19:54N 32°41' W 117°40'3 7.3
2018-Jun-11 19:28N 32°42' W 117°44'6 9.3
2018-Jun-11 18:51N 32°44' W 117°50'5 3.3
2018-Jun-11 17:28N 32°44' W 117°56'3 6.4
2018-Jun-11 17:00N 32°44' W 117°59'4 5.9
2018-Jun-11 16:15N 32°46' W 118°04'3 7.8
2018-Jun-11 15:55N 32°47' W 118°07'4 9.0
2018-Jun-11 15:30N 32°50' W 118°09'4 2.4
2018-Jun-11 13:50N 32°52' W 118°05'8 3.0
2018-Jun-11 11:21N 32°57' W 117°58'2 6.0
2018-Jun-11 10:59N 32°59' W 117°58'3 5.9
2018-Jun-11 10:27N 33°03' W 117°58'10 4.5
2018-Jun-11 08:16N 33°06' W 118°09'2 7.5
2018-Jun-11 08:00N 33°05' W 118°10'510.0
2018-Jun-11 07:30N 32°60' W 118°10'3 6.7
2018-Jun-11 07:00N 32°56' W 118°09'8 8.5
2018-Jun-11 06:05N 32°54' W 118°00'1 6.7
2018-Jun-11 05:58N 32°53' W 117°60'3 6.4
2018-Jun-11 05:29N 32°50' W 118°00'3 6.0
2018-Jun-11 05:00N 32°47' W 118°00'3 5.9
2018-Jun-11 04:30N 32°44' W 117°60'3 6.0
2018-Jun-11 04:00N 32°41' W 117°60'3 6.7
2018-Jun-11 03:30N 32°39' W 118°02'4 7.5
2018-Jun-11 02:59N 32°37' W 117°58'612.5
2018-Jun-11 02:30N 32°37' W 117°51'1113.2
2018-Jun-11 01:40N 32°38' W 117°38'314.3
2018-Jun-11 01:28N 32°39' W 117°41'714.9
2018-Jun-11 01:00N 32°38' W 117°49'714.9
2018-Jun-11 00:30N 32°37' W 117°58'814.9
2018-Jun-11 00:00N 32°36' W 118°07'610.9
2018-Jun-10 23:29N 32°31' W 118°11'713.6
2018-Jun-10 23:00N 32°25' W 118°11'6 2.8
2018-Jun-10 20:56N 32°19' W 118°08'19 1.2
2018-Jun-10 04:30N 32°33' W 117°52'713.8
2018-Jun-10 04:00N 32°37' W 117°59'1314.4
2018-Jun-10 03:05N 32°37' W 118°15'314.5
2018-Jun-10 02:52N 32°37' W 118°19'3 5.8
2018-Jun-10 02:18N 32°37' W 118°15'413.3
2018-Jun-10 01:59N 32°37' W 118°10'713.5
2018-Jun-10 01:30N 32°37' W 118°02'714.1
2018-Jun-10 01:00N 32°37' W 117°54'2 3.6
2018-Jun-10 00:30N 32°38' W 117°52'2 3.6
2018-Jun-10 00:00N 32°38' W 117°55'510.6
2018-Jun-09 23:30N 32°33' W 117°55'814.5
2018-Jun-09 22:56N 32°25' W 117°57'1 1.7
2018-Jun-09 22:30N 32°25' W 117°56'2 4.0
2018-Jun-09 22:00N 32°23' W 117°56'16 3.1
2018-Jun-09 16:49N 32°21' W 118°14'0 0.2
2018-Jun-09 15:01N 32°20' W 118°14'2 4.5
2018-Jun-09 14:30N 32°23' W 118°15'2 4.4
2018-Jun-09 14:00N 32°25' W 118°15'4 4.2
2018-Jun-09 13:05N 32°26' W 118°11'2 4.5
2018-Jun-09 12:40N 32°27' W 118°09'5 4.6
2018-Jun-09 11:38N 32°28' W 118°03'1 7.6
2018-Jun-09 11:30N 32°28' W 118°02'5 9.4
2018-Jun-09 11:00N 32°24' W 117°58'6 3.4
2018-Jun-09 09:06N 32°19' W 117°54'0 4.8
2018-Jun-09 09:00N 32°19' W 117°54'40 1.4
2018-Jun-08 04:35N 32°38' W 117°13'1 3.9
2018-Jun-08 04:17N 32°37' W 117°13'1 0.8
2018-Jun-08 03:30N 32°38' W 117°13'5 9.6
2018-Jun-08 02:59N 32°38' W 117°18'1123.4
2018-Jun-08 02:30N 32°40' W 117°31'1 2.4
2018-Jun-08 02:00N 32°39' W 117°31'2 3.8
2018-Jun-08 01:30N 32°37' W 117°31'97 7.0
2018-Jun-07 11:30N 32°34' W 119°27'38311.5
2018-Jun-06 02:11N 37°11' W 124°49'317.8
2018-Jun-06 01:59N 37°15' W 124°48'917.5
2018-Jun-06 01:30N 37°23' W 124°46'1717.3
2018-Jun-06 00:29N 37°40' W 124°43'  

Dump ship's entire track history